sensor_id;sensor_type;location;lat;lon;timestamp;P1;durP1;ratioP1;P2;durP2;ratioP2
15528;SDS011;7866;52.280;9.500;2022-12-07T00:02:16;16.87;;;14.73;;
15528;SDS011;7866;52.280;9.500;2022-12-07T00:07:18;21.60;;;17.60;;
15528;SDS011;7866;52.280;9.500;2022-12-07T00:12:21;17.10;;;15.23;;
15528;SDS011;7866;52.280;9.500;2022-12-07T00:17:23;15.97;;;14.37;;
15528;SDS011;7866;52.280;9.500;2022-12-07T00:22:24;14.10;;;12.60;;
15528;SDS011;7866;52.280;9.500;2022-12-07T00:27:28;13.07;;;11.77;;
15528;SDS011;7866;52.280;9.500;2022-12-07T00:32:29;11.70;;;10.50;;
15528;SDS011;7866;52.280;9.500;2022-12-07T00:37:31;12.37;;;11.17;;
15528;SDS011;7866;52.280;9.500;2022-12-07T00:42:34;11.57;;;10.37;;
15528;SDS011;7866;52.280;9.500;2022-12-07T00:47:36;12.03;;;10.83;;
15528;SDS011;7866;52.280;9.500;2022-12-07T00:52:37;11.20;;;10.20;;
15528;SDS011;7866;52.280;9.500;2022-12-07T00:57:40;10.90;;;9.80;;
15528;SDS011;7866;52.280;9.500;2022-12-07T01:02:42;10.83;;;9.83;;
15528;SDS011;7866;52.280;9.500;2022-12-07T01:07:44;9.97;;;9.07;;
15528;SDS011;7866;52.280;9.500;2022-12-07T01:12:47;10.93;;;9.97;;
15528;SDS011;7866;52.280;9.500;2022-12-07T01:17:49;10.90;;;9.90;;
15528;SDS011;7866;52.280;9.500;2022-12-07T01:22:51;10.33;;;9.43;;
15528;SDS011;7866;52.280;9.500;2022-12-07T01:27:54;11.00;;;10.00;;
15528;SDS011;7866;52.280;9.500;2022-12-07T01:32:56;11.43;;;10.23;;
15528;SDS011;7866;52.280;9.500;2022-12-07T01:37:58;11.60;;;10.60;;
15528;SDS011;7866;52.280;9.500;2022-12-07T01:43:01;11.57;;;10.50;;
15528;SDS011;7866;52.280;9.500;2022-12-07T01:48:02;12.13;;;10.50;;
15528;SDS011;7866;52.280;9.500;2022-12-07T01:53:08;11.87;;;10.77;;
15528;SDS011;7866;52.280;9.500;2022-12-07T01:58:12;11.80;;;10.70;;
15528;SDS011;7866;52.280;9.500;2022-12-07T02:03:16;12.10;;;11.00;;
15528;SDS011;7866;52.280;9.500;2022-12-07T02:08:20;13.43;;;12.00;;
15528;SDS011;7866;52.280;9.500;2022-12-07T02:13:25;16.57;;;12.03;;
15528;SDS011;7866;52.280;9.500;2022-12-07T02:18:31;11.03;;;9.93;;
15528;SDS011;7866;52.280;9.500;2022-12-07T02:23:51;12.07;;;10.37;;
15528;SDS011;7866;52.280;9.500;2022-12-07T02:29:14;11.00;;;9.33;;
15528;SDS011;7866;52.280;9.500;2022-12-07T02:34:22;9.27;;;8.20;;
15528;SDS011;7866;52.280;9.500;2022-12-07T02:39:33;11.57;;;10.27;;
15528;SDS011;7866;52.280;9.500;2022-12-07T02:44:43;10.47;;;9.47;;
15528;SDS011;7866;52.280;9.500;2022-12-07T02:49:47;10.87;;;9.80;;
15528;SDS011;7866;52.280;9.500;2022-12-07T02:54:50;11.73;;;10.30;;
15528;SDS011;7866;52.280;9.500;2022-12-07T02:59:57;10.10;;;9.10;;
15528;SDS011;7866;52.280;9.500;2022-12-07T03:05:07;11.43;;;7.97;;
15528;SDS011;7866;52.280;9.500;2022-12-07T03:10:28;8.73;;;7.23;;
15528;SDS011;7866;52.280;9.500;2022-12-07T03:15:41;7.83;;;6.10;;
15528;SDS011;7866;52.280;9.500;2022-12-07T03:20:49;6.63;;;6.03;;
15528;SDS011;7866;52.280;9.500;2022-12-07T03:25:55;7.03;;;6.33;;
15528;SDS011;7866;52.280;9.500;2022-12-07T03:31:03;8.50;;;6.37;;
15528;SDS011;7866;52.280;9.500;2022-12-07T03:36:11;11.33;;;6.70;;
15528;SDS011;7866;52.280;9.500;2022-12-07T03:41:19;8.77;;;7.37;;
15528;SDS011;7866;52.280;9.500;2022-12-07T03:46:27;10.23;;;7.03;;
15528;SDS011;7866;52.280;9.500;2022-12-07T03:51:37;9.57;;;7.47;;
15528;SDS011;7866;52.280;9.500;2022-12-07T03:56:44;11.23;;;7.97;;
15528;SDS011;7866;52.280;9.500;2022-12-07T04:01:53;11.90;;;8.53;;
15528;SDS011;7866;52.280;9.500;2022-12-07T04:06:56;9.93;;;8.67;;
15528;SDS011;7866;52.280;9.500;2022-12-07T04:11:58;9.60;;;7.80;;
15528;SDS011;7866;52.280;9.500;2022-12-07T04:17:01;11.03;;;8.37;;
15528;SDS011;7866;52.280;9.500;2022-12-07T04:22:03;12.97;;;8.60;;
15528;SDS011;7866;52.280;9.500;2022-12-07T04:27:05;11.40;;;8.00;;
15528;SDS011;7866;52.280;9.500;2022-12-07T04:32:08;9.60;;;7.47;;
15528;SDS011;7866;52.280;9.500;2022-12-07T04:37:10;9.53;;;6.50;;
15528;SDS011;7866;52.280;9.500;2022-12-07T04:42:12;10.57;;;6.60;;
15528;SDS011;7866;52.280;9.500;2022-12-07T04:47:15;8.70;;;6.17;;
15528;SDS011;7866;52.280;9.500;2022-12-07T04:52:16;9.40;;;6.40;;
15528;SDS011;7866;52.280;9.500;2022-12-07T04:57:18;10.60;;;6.37;;
15528;SDS011;7866;52.280;9.500;2022-12-07T05:02:21;10.03;;;6.43;;
15528;SDS011;7866;52.280;9.500;2022-12-07T05:07:23;8.03;;;5.80;;
15528;SDS011;7866;52.280;9.500;2022-12-07T05:12:24;6.17;;;5.37;;
15528;SDS011;7866;52.280;9.500;2022-12-07T05:17:27;8.87;;;6.30;;
15528;SDS011;7866;52.280;9.500;2022-12-07T05:22:29;6.57;;;5.27;;
15528;SDS011;7866;52.280;9.500;2022-12-07T05:27:31;6.50;;;5.20;;
15528;SDS011;7866;52.280;9.500;2022-12-07T05:32:34;9.83;;;5.50;;
15528;SDS011;7866;52.280;9.500;2022-12-07T05:37:35;7.47;;;5.20;;
15528;SDS011;7866;52.280;9.500;2022-12-07T05:42:37;7.97;;;5.43;;
15528;SDS011;7866;52.280;9.500;2022-12-07T05:47:40;7.17;;;4.53;;
15528;SDS011;7866;52.280;9.500;2022-12-07T05:52:42;8.97;;;5.20;;
15528;SDS011;7866;52.280;9.500;2022-12-07T05:57:44;5.57;;;4.73;;
15528;SDS011;7866;52.280;9.500;2022-12-07T06:03:07;7.00;;;5.03;;
15528;SDS011;7866;52.280;9.500;2022-12-07T06:08:08;6.17;;;4.87;;
15528;SDS011;7866;52.280;9.500;2022-12-07T06:13:10;6.87;;;4.53;;
15528;SDS011;7866;52.280;9.500;2022-12-07T06:18:13;9.23;;;4.00;;
15528;SDS011;7866;52.280;9.500;2022-12-07T06:23:15;5.27;;;4.50;;
15528;SDS011;7866;52.280;9.500;2022-12-07T06:28:16;5.10;;;3.90;;
15528;SDS011;7866;52.280;9.500;2022-12-07T06:33:19;6.20;;;3.70;;
15528;SDS011;7866;52.280;9.500;2022-12-07T06:38:21;4.20;;;3.03;;
15528;SDS011;7866;52.280;9.500;2022-12-07T06:43:23;3.30;;;3.00;;
15528;SDS011;7866;52.280;9.500;2022-12-07T06:48:26;3.03;;;2.60;;
15528;SDS011;7866;52.280;9.500;2022-12-07T06:53:27;3.87;;;2.80;;
15528;SDS011;7866;52.280;9.500;2022-12-07T06:58:29;6.43;;;2.83;;
15528;SDS011;7866;52.280;9.500;2022-12-07T07:03:32;3.77;;;2.97;;
15528;SDS011;7866;52.280;9.500;2022-12-07T07:08:34;4.07;;;2.67;;
15528;SDS011;7866;52.280;9.500;2022-12-07T07:13:36;6.47;;;2.60;;
15528;SDS011;7866;52.280;9.500;2022-12-07T07:18:39;3.43;;;2.43;;
15528;SDS011;7866;52.280;9.500;2022-12-07T07:23:41;3.63;;;2.47;;
15528;SDS011;7866;52.280;9.500;2022-12-07T07:28:43;3.20;;;2.10;;
15528;SDS011;7866;52.280;9.500;2022-12-07T07:33:46;3.67;;;1.90;;
15528;SDS011;7866;52.280;9.500;2022-12-07T07:38:48;5.37;;;2.33;;
15528;SDS011;7866;52.280;9.500;2022-12-07T07:43:50;4.70;;;2.20;;
15528;SDS011;7866;52.280;9.500;2022-12-07T07:48:53;12.10;;;2.67;;
15528;SDS011;7866;52.280;9.500;2022-12-07T07:53:54;3.20;;;2.00;;
15528;SDS011;7866;52.280;9.500;2022-12-07T07:58:56;9.67;;;2.40;;
15528;SDS011;7866;52.280;9.500;2022-12-07T08:03:59;3.50;;;1.70;;
15528;SDS011;7866;52.280;9.500;2022-12-07T08:09:00;9.20;;;2.40;;
15528;SDS011;7866;52.280;9.500;2022-12-07T08:14:03;1.90;;;1.70;;
15528;SDS011;7866;52.280;9.500;2022-12-07T08:19:06;5.13;;;2.83;;
15528;SDS011;7866;52.280;9.500;2022-12-07T08:24:08;6.90;;;2.30;;
15528;SDS011;7866;52.280;9.500;2022-12-07T08:29:09;6.40;;;2.07;;
15528;SDS011;7866;52.280;9.500;2022-12-07T08:34:13;18.70;;;3.20;;
15528;SDS011;7866;52.280;9.500;2022-12-07T08:39:15;2.80;;;1.80;;
15528;SDS011;7866;52.280;9.500;2022-12-07T08:44:16;4.47;;;1.80;;
15528;SDS011;7866;52.280;9.500;2022-12-07T08:49:20;6.83;;;2.53;;
15528;SDS011;7866;52.280;9.500;2022-12-07T08:54:25;2.10;;;1.80;;
15528;SDS011;7866;52.280;9.500;2022-12-07T08:59:27;3.10;;;1.63;;
15528;SDS011;7866;52.280;9.500;2022-12-07T09:04:31;13.23;;;2.20;;
15528;SDS011;7866;52.280;9.500;2022-12-07T09:09:32;3.93;;;2.10;;
15528;SDS011;7866;52.280;9.500;2022-12-07T09:14:34;2.83;;;1.93;;
15528;SDS011;7866;52.280;9.500;2022-12-07T09:19:37;3.43;;;1.70;;
15528;SDS011;7866;52.280;9.500;2022-12-07T09:24:41;4.53;;;1.80;;
15528;SDS011;7866;52.280;9.500;2022-12-07T09:29:43;3.90;;;2.20;;
15528;SDS011;7866;52.280;9.500;2022-12-07T09:34:46;4.70;;;1.50;;
15528;SDS011;7866;52.280;9.500;2022-12-07T09:39:48;19.87;;;2.10;;
15528;SDS011;7866;52.280;9.500;2022-12-07T09:44:49;2.73;;;1.33;;
15528;SDS011;7866;52.280;9.500;2022-12-07T09:49:52;3.20;;;1.73;;
15528;SDS011;7866;52.280;9.500;2022-12-07T09:54:59;5.17;;;1.43;;
15528;SDS011;7866;52.280;9.500;2022-12-07T10:00:03;2.57;;;1.50;;
15528;SDS011;7866;52.280;9.500;2022-12-07T10:05:12;3.63;;;1.20;;
15528;SDS011;7866;52.280;9.500;2022-12-07T10:10:17;3.07;;;1.20;;
15528;SDS011;7866;52.280;9.500;2022-12-07T10:15:40;5.77;;;1.73;;
15528;SDS011;7866;52.280;9.500;2022-12-07T10:20:46;3.13;;;1.40;;
15528;SDS011;7866;52.280;9.500;2022-12-07T10:25:49;5.53;;;1.70;;
15528;SDS011;7866;52.280;9.500;2022-12-07T10:30:55;3.97;;;1.53;;
15528;SDS011;7866;52.280;9.500;2022-12-07T10:36:17;4.27;;;1.77;;
15528;SDS011;7866;52.280;9.500;2022-12-07T10:41:21;4.87;;;1.90;;
15528;SDS011;7866;52.280;9.500;2022-12-07T10:51:59;3.83;;;1.50;;
15528;SDS011;7866;52.280;9.500;2022-12-07T10:57:13;4.27;;;1.90;;
15528;SDS011;7866;52.280;9.500;2022-12-07T11:02:25;5.63;;;1.90;;
15528;SDS011;7866;52.280;9.500;2022-12-07T11:07:42;4.50;;;2.03;;
15528;SDS011;7866;52.280;9.500;2022-12-07T11:12:54;4.77;;;1.90;;
15528;SDS011;7866;52.280;9.500;2022-12-07T11:18:06;5.37;;;1.47;;
15528;SDS011;7866;52.280;9.500;2022-12-07T11:23:21;8.47;;;2.30;;
15528;SDS011;7866;52.280;9.500;2022-12-07T11:28:39;5.43;;;1.90;;
15528;SDS011;7866;52.280;9.500;2022-12-07T11:33:56;4.27;;;1.50;;
15528;SDS011;7866;52.280;9.500;2022-12-07T11:39:10;4.67;;;1.57;;
15528;SDS011;7866;52.280;9.500;2022-12-07T11:44:24;3.43;;;1.57;;
15528;SDS011;7866;52.280;9.500;2022-12-07T11:49:37;6.03;;;1.73;;
15528;SDS011;7866;52.280;9.500;2022-12-07T11:54:45;6.17;;;1.63;;
15528;SDS011;7866;52.280;9.500;2022-12-07T11:59:49;4.70;;;2.23;;
15528;SDS011;7866;52.280;9.500;2022-12-07T12:04:54;5.30;;;1.80;;
15528;SDS011;7866;52.280;9.500;2022-12-07T12:10:02;2.77;;;1.63;;
15528;SDS011;7866;52.280;9.500;2022-12-07T12:15:16;9.17;;;1.77;;
15528;SDS011;7866;52.280;9.500;2022-12-07T12:20:29;5.30;;;1.73;;
15528;SDS011;7866;52.280;9.500;2022-12-07T12:25:37;6.40;;;1.63;;
15528;SDS011;7866;52.280;9.500;2022-12-07T12:30:42;5.57;;;1.70;;
15528;SDS011;7866;52.280;9.500;2022-12-07T12:35:44;4.33;;;2.07;;
15528;SDS011;7866;52.280;9.500;2022-12-07T12:40:47;4.67;;;1.90;;
15528;SDS011;7866;52.280;9.500;2022-12-07T12:45:49;5.27;;;1.60;;
15528;SDS011;7866;52.280;9.500;2022-12-07T12:51:00;5.73;;;2.00;;
15528;SDS011;7866;52.280;9.500;2022-12-07T12:56:40;9.77;;;4.47;;
15528;SDS011;7866;52.280;9.500;2022-12-07T13:01:48;10.27;;;3.77;;
15528;SDS011;7866;52.280;9.500;2022-12-07T13:06:51;10.10;;;3.93;;
15528;SDS011;7866;52.280;9.500;2022-12-07T13:11:59;18.43;;;8.57;;
15528;SDS011;7866;52.280;9.500;2022-12-07T13:17:03;19.77;;;9.57;;
15528;SDS011;7866;52.280;9.500;2022-12-07T13:27:42;4.17;;;1.90;;
15528;SDS011;7866;52.280;9.500;2022-12-07T13:32:51;5.83;;;2.47;;
15528;SDS011;7866;52.280;9.500;2022-12-07T13:37:54;3.47;;;1.83;;
15528;SDS011;7866;52.280;9.500;2022-12-07T13:43:00;6.23;;;2.63;;
15528;SDS011;7866;52.280;9.500;2022-12-07T13:48:05;5.47;;;2.00;;
15528;SDS011;7866;52.280;9.500;2022-12-07T13:53:07;3.87;;;2.20;;
15528;SDS011;7866;52.280;9.500;2022-12-07T13:58:15;9.33;;;3.13;;
15528;SDS011;7866;52.280;9.500;2022-12-07T14:03:23;6.83;;;1.80;;
15528;SDS011;7866;52.280;9.500;2022-12-07T14:08:29;4.93;;;1.77;;
15528;SDS011;7866;52.280;9.500;2022-12-07T14:13:33;6.57;;;1.70;;
15528;SDS011;7866;52.280;9.500;2022-12-07T14:18:39;4.47;;;1.60;;
15528;SDS011;7866;52.280;9.500;2022-12-07T14:23:41;6.67;;;2.70;;
15528;SDS011;7866;52.280;9.500;2022-12-07T14:28:45;3.10;;;1.50;;
15528;SDS011;7866;52.280;9.500;2022-12-07T14:33:48;4.63;;;1.67;;
15528;SDS011;7866;52.280;9.500;2022-12-07T14:38:50;6.87;;;1.83;;
15528;SDS011;7866;52.280;9.500;2022-12-07T14:43:55;4.17;;;1.80;;
15528;SDS011;7866;52.280;9.500;2022-12-07T14:48:57;5.43;;;2.30;;
15528;SDS011;7866;52.280;9.500;2022-12-07T14:53:59;5.13;;;2.10;;
15528;SDS011;7866;52.280;9.500;2022-12-07T14:59:02;3.87;;;1.70;;
15528;SDS011;7866;52.280;9.500;2022-12-07T15:04:04;2.53;;;1.87;;
15528;SDS011;7866;52.280;9.500;2022-12-07T15:09:05;6.03;;;1.63;;
15528;SDS011;7866;52.280;9.500;2022-12-07T15:14:08;4.23;;;1.70;;
15528;SDS011;7866;52.280;9.500;2022-12-07T15:19:12;2.63;;;1.63;;
15528;SDS011;7866;52.280;9.500;2022-12-07T15:24:15;4.90;;;2.17;;
15528;SDS011;7866;52.280;9.500;2022-12-07T15:29:18;4.00;;;1.73;;
15528;SDS011;7866;52.280;9.500;2022-12-07T15:34:19;7.10;;;1.93;;
15528;SDS011;7866;52.280;9.500;2022-12-07T15:39:22;2.73;;;1.63;;
15528;SDS011;7866;52.280;9.500;2022-12-07T15:44:25;4.93;;;2.03;;
15528;SDS011;7866;52.280;9.500;2022-12-07T15:49:58;7.23;;;2.17;;
15528;SDS011;7866;52.280;9.500;2022-12-07T15:55:00;4.70;;;2.17;;
15528;SDS011;7866;52.280;9.500;2022-12-07T16:00:05;7.27;;;2.40;;
15528;SDS011;7866;52.280;9.500;2022-12-07T16:05:09;4.73;;;1.70;;
15528;SDS011;7866;52.280;9.500;2022-12-07T16:10:11;4.20;;;1.53;;
15528;SDS011;7866;52.280;9.500;2022-12-07T16:15:14;5.57;;;2.10;;
15528;SDS011;7866;52.280;9.500;2022-12-07T16:20:16;5.70;;;2.30;;
15528;SDS011;7866;52.280;9.500;2022-12-07T16:25:18;5.97;;;2.27;;
15528;SDS011;7866;52.280;9.500;2022-12-07T16:30:21;5.70;;;2.00;;
15528;SDS011;7866;52.280;9.500;2022-12-07T16:35:23;6.63;;;2.40;;
15528;SDS011;7866;52.280;9.500;2022-12-07T16:40:24;6.47;;;2.00;;
15528;SDS011;7866;52.280;9.500;2022-12-07T16:45:27;5.60;;;2.47;;
15528;SDS011;7866;52.280;9.500;2022-12-07T16:50:29;3.43;;;2.30;;
15528;SDS011;7866;52.280;9.500;2022-12-07T16:55:31;4.23;;;1.80;;
15528;SDS011;7866;52.280;9.500;2022-12-07T17:00:34;4.23;;;2.00;;
15528;SDS011;7866;52.280;9.500;2022-12-07T17:05:38;4.93;;;2.30;;
15528;SDS011;7866;52.280;9.500;2022-12-07T17:10:41;4.97;;;2.60;;
15528;SDS011;7866;52.280;9.500;2022-12-07T17:15:45;6.23;;;2.30;;
15528;SDS011;7866;52.280;9.500;2022-12-07T17:21:01;6.80;;;2.87;;
15528;SDS011;7866;52.280;9.500;2022-12-07T17:26:05;7.17;;;3.10;;
15528;SDS011;7866;52.280;9.500;2022-12-07T17:31:10;5.30;;;3.10;;
15528;SDS011;7866;52.280;9.500;2022-12-07T17:36:13;5.93;;;2.97;;
15528;SDS011;7866;52.280;9.500;2022-12-07T17:41:18;4.83;;;2.80;;
15528;SDS011;7866;52.280;9.500;2022-12-07T17:46:36;4.00;;;2.27;;
15528;SDS011;7866;52.280;9.500;2022-12-07T17:51:38;4.40;;;2.83;;
15528;SDS011;7866;52.280;9.500;2022-12-07T17:56:58;5.47;;;2.90;;
15528;SDS011;7866;52.280;9.500;2022-12-07T18:02:01;3.97;;;2.40;;
15528;SDS011;7866;52.280;9.500;2022-12-07T18:07:02;5.67;;;2.83;;
15528;SDS011;7866;52.280;9.500;2022-12-07T18:12:06;5.57;;;2.57;;
15528;SDS011;7866;52.280;9.500;2022-12-07T18:17:09;6.43;;;2.57;;
15528;SDS011;7866;52.280;9.500;2022-12-07T18:22:11;10.50;;;3.40;;
15528;SDS011;7866;52.280;9.500;2022-12-07T18:27:13;6.37;;;3.03;;
15528;SDS011;7866;52.280;9.500;2022-12-07T18:32:16;4.90;;;3.00;;
15528;SDS011;7866;52.280;9.500;2022-12-07T18:37:17;6.43;;;3.07;;
15528;SDS011;7866;52.280;9.500;2022-12-07T18:42:19;7.47;;;3.50;;
15528;SDS011;7866;52.280;9.500;2022-12-07T18:47:22;6.20;;;3.60;;
15528;SDS011;7866;52.280;9.500;2022-12-07T18:52:24;8.20;;;4.83;;
15528;SDS011;7866;52.280;9.500;2022-12-07T18:57:25;5.30;;;3.70;;
15528;SDS011;7866;52.280;9.500;2022-12-07T19:02:28;3.80;;;3.27;;
15528;SDS011;7866;52.280;9.500;2022-12-07T19:07:30;4.67;;;3.37;;
15528;SDS011;7866;52.280;9.500;2022-12-07T19:12:32;5.80;;;3.50;;
15528;SDS011;7866;52.280;9.500;2022-12-07T19:17:35;4.60;;;3.07;;
15528;SDS011;7866;52.280;9.500;2022-12-07T19:22:37;5.33;;;3.10;;
15528;SDS011;7866;52.280;9.500;2022-12-07T19:27:39;3.10;;;2.80;;
15528;SDS011;7866;52.280;9.500;2022-12-07T19:32:42;5.20;;;3.23;;
15528;SDS011;7866;52.280;9.500;2022-12-07T19:37:43;4.43;;;3.83;;
15528;SDS011;7866;52.280;9.500;2022-12-07T19:42:45;4.30;;;3.07;;
15528;SDS011;7866;52.280;9.500;2022-12-07T19:47:48;6.37;;;3.50;;
15528;SDS011;7866;52.280;9.500;2022-12-07T19:52:50;6.07;;;3.83;;
15528;SDS011;7866;52.280;9.500;2022-12-07T19:57:52;5.97;;;4.03;;
15528;SDS011;7866;52.280;9.500;2022-12-07T20:02:55;6.20;;;4.40;;
15528;SDS011;7866;52.280;9.500;2022-12-07T20:07:56;4.13;;;3.50;;
15528;SDS011;7866;52.280;9.500;2022-12-07T20:12:58;9.00;;;5.33;;
15528;SDS011;7866;52.280;9.500;2022-12-07T20:18:19;8.73;;;4.87;;
15528;SDS011;7866;52.280;9.500;2022-12-07T20:23:20;8.17;;;4.43;;
15528;SDS011;7866;52.280;9.500;2022-12-07T20:28:22;6.13;;;4.27;;
15528;SDS011;7866;52.280;9.500;2022-12-07T20:33:25;7.47;;;4.83;;
15528;SDS011;7866;52.280;9.500;2022-12-07T20:38:28;6.80;;;4.47;;
15528;SDS011;7866;52.280;9.500;2022-12-07T20:43:31;7.53;;;4.63;;
15528;SDS011;7866;52.280;9.500;2022-12-07T20:48:34;5.10;;;4.40;;
15528;SDS011;7866;52.280;9.500;2022-12-07T20:53:36;6.23;;;4.53;;
15528;SDS011;7866;52.280;9.500;2022-12-07T20:58:38;5.60;;;4.90;;
15528;SDS011;7866;52.280;9.500;2022-12-07T21:03:41;8.03;;;4.80;;
15528;SDS011;7866;52.280;9.500;2022-12-07T21:08:43;6.97;;;4.87;;
15528;SDS011;7866;52.280;9.500;2022-12-07T21:13:45;7.87;;;5.07;;
15528;SDS011;7866;52.280;9.500;2022-12-07T21:18:49;7.20;;;5.23;;
15528;SDS011;7866;52.280;9.500;2022-12-07T21:23:52;7.80;;;4.97;;
15528;SDS011;7866;52.280;9.500;2022-12-07T21:28:55;5.93;;;4.83;;
15528;SDS011;7866;52.280;9.500;2022-12-07T21:33:58;6.23;;;4.83;;
15528;SDS011;7866;52.280;9.500;2022-12-07T21:39:01;8.67;;;4.67;;
15528;SDS011;7866;52.280;9.500;2022-12-07T21:44:04;5.90;;;3.80;;
15528;SDS011;7866;52.280;9.500;2022-12-07T21:49:11;6.43;;;4.00;;
15528;SDS011;7866;52.280;9.500;2022-12-07T21:54:14;6.73;;;4.53;;
15528;SDS011;7866;52.280;9.500;2022-12-07T21:59:15;8.50;;;4.80;;
15528;SDS011;7866;52.280;9.500;2022-12-07T22:04:21;8.63;;;4.90;;
15528;SDS011;7866;52.280;9.500;2022-12-07T22:09:25;8.00;;;5.27;;
15528;SDS011;7866;52.280;9.500;2022-12-07T22:14:29;7.20;;;6.50;;
15528;SDS011;7866;52.280;9.500;2022-12-07T22:19:49;9.40;;;6.37;;
15528;SDS011;7866;52.280;9.500;2022-12-07T22:24:51;7.23;;;6.20;;
15528;SDS011;7866;52.280;9.500;2022-12-07T22:29:52;7.37;;;6.17;;
15528;SDS011;7866;52.280;9.500;2022-12-07T22:34:55;8.47;;;6.20;;
15528;SDS011;7866;52.280;9.500;2022-12-07T22:39:57;6.27;;;5.67;;
15528;SDS011;7866;52.280;9.500;2022-12-07T22:44:59;7.30;;;6.00;;
15528;SDS011;7866;52.280;9.500;2022-12-07T22:50:02;10.07;;;5.80;;
15528;SDS011;7866;52.280;9.500;2022-12-07T22:55:06;11.67;;;6.00;;
15528;SDS011;7866;52.280;9.500;2022-12-07T23:00:10;6.43;;;5.83;;
15528;SDS011;7866;52.280;9.500;2022-12-07T23:05:14;7.67;;;5.90;;
15528;SDS011;7866;52.280;9.500;2022-12-07T23:10:16;6.60;;;5.90;;
15528;SDS011;7866;52.280;9.500;2022-12-07T23:15:18;6.93;;;5.47;;
15528;SDS011;7866;52.280;9.500;2022-12-07T23:20:21;6.63;;;5.20;;
15528;SDS011;7866;52.280;9.500;2022-12-07T23:25:23;6.20;;;5.17;;
15528;SDS011;7866;52.280;9.500;2022-12-07T23:30:24;7.07;;;5.13;;
15528;SDS011;7866;52.280;9.500;2022-12-07T23:35:27;5.90;;;5.03;;
15528;SDS011;7866;52.280;9.500;2022-12-07T23:40:29;8.20;;;5.53;;
15528;SDS011;7866;52.280;9.500;2022-12-07T23:45:31;7.23;;;5.23;;
15528;SDS011;7866;52.280;9.500;2022-12-07T23:50:34;6.07;;;5.17;;
15528;SDS011;7866;52.280;9.500;2022-12-07T23:55:35;6.13;;;5.50;;
